Time;durP1;ratioP1;P1;durP2;ratioP2;P2;SDS_P1;SDS_P2;PMS_P1;PMS_P2;Temp;Humidity;BMP_temperature;BMP_pressure;BME280_temperature;BME280_humidity;BME280_pressure;Samples;Min_cycle;Max_cycle;Signal;HPM_P1;HPM_P2
2021/07/25 00:02:12;;;;;;;11.43;8.47;;;20.30;99.90;;;;;;5015221;28;20190;-56
2021/07/25 00:04:38;;;;;;;9.80;8.80;;;20.30;99.90;;;;;;5012835;28;20197;-56
2021/07/25 00:07:04;;;;;;;12.50;9.27;;;20.30;99.90;;;;;;5012183;28;20190;-56
2021/07/25 00:09:30;;;;;;;9.70;8.80;;;20.30;99.90;;;;;;5027874;28;20526;-56
2021/07/25 00:11:55;;;;;;;10.13;8.83;;;20.30;99.90;;;;;;5012567;28;20210;-56
2021/07/25 00:14:21;;;;;;;9.87;8.97;;;20.30;99.90;;;;;;5018088;28;20277;-56
2021/07/25 00:16:47;;;;;;;9.27;8.37;;;20.20;99.90;;;;;;5011277;28;20435;-56
2021/07/25 00:19:12;;;;;;;9.90;8.70;;;20.20;99.90;;;;;;5014243;28;20182;-55
2021/07/25 00:21:39;;;;;;;10.33;8.43;;;20.30;99.90;;;;;;5029171;28;20229;-56
2021/07/25 00:24:05;;;;;;;9.63;8.70;;;20.20;99.90;;;;;;5018213;28;21834;-55
2021/07/25 00:29:30;;;;;;;10.07;9.07;;;20.30;99.90;;;;;;5000995;28;20221;-56
2021/07/25 00:32:08;;;;;;;10.45;9.32;;;20.40;99.90;;;;;;5016318;28;20201;-56
2021/07/25 00:34:34;;;;;;;11.48;10.32;;;20.40;99.90;;;;;;5012124;28;20667;-56
2021/07/25 00:37:01;;;;;;;10.00;9.10;;;20.40;99.90;;;;;;5015124;28;20210;-56
2021/07/25 00:39:27;;;;;;;10.52;9.63;;;20.30;99.90;;;;;;5012204;28;20636;-56
2021/07/25 00:41:53;;;;;;;10.37;9.40;;;20.30;99.90;;;;;;5016553;28;20202;-56
2021/07/25 00:44:18;;;;;;;10.13;9.13;;;20.30;99.90;;;;;;5015554;28;20883;-56
2021/07/25 00:46:48;;;;;;;12.13;10.77;;;20.30;99.90;;;;;;5012383;28;20452;-56
2021/07/25 00:49:14;;;;;;;11.40;10.40;;;20.20;99.90;;;;;;5017921;28;20248;-56
2021/07/25 00:51:40;;;;;;;10.53;9.53;;;20.20;99.90;;;;;;5015081;28;20226;-56
2021/07/25 00:54:06;;;;;;;11.07;9.73;;;20.20;99.90;;;;;;5015150;28;20802;-56
2021/07/25 00:56:32;;;;;;;9.30;8.45;;;20.20;99.90;;;;;;5018793;28;20221;-56
2021/07/25 00:58:58;;;;;;;12.67;10.40;;;20.20;99.90;;;;;;5014810;28;20622;-56
2021/07/25 01:01:23;;;;;;;10.27;9.27;;;20.20;99.90;;;;;;5018236;28;20981;-55
2021/07/25 01:04:13;;;;;;;10.50;9.60;;;20.20;99.90;;;;;;5016123;28;20182;-55
2021/07/25 01:06:45;;;;;;;11.93;9.73;;;20.20;99.90;;;;;;5024815;28;20548;-56
2021/07/25 01:09:34;;;;;;;10.40;9.48;;;20.20;99.90;;;;;;5018320;28;20186;-56
2021/07/25 01:12:06;;;;;;;11.32;10.02;;;20.00;99.90;;;;;;5024637;28;20197;-56
2021/07/25 01:14:38;;;;;;;11.18;9.05;;;20.00;99.90;;;;;;5032933;28;20193;-56
2021/07/25 01:17:26;;;;;;;10.75;9.75;;;20.00;99.90;;;;;;5014635;28;20725;-56
2021/07/25 01:19:53;;;;;;;10.68;9.43;;;20.10;99.90;;;;;;5029038;28;20206;-55
2021/07/25 01:22:19;;;;;;;11.85;9.27;;;20.10;99.90;;;;;;5017353;28;20354;-56
2021/07/25 01:24:45;;;;;;;9.37;7.80;;;20.00;99.90;;;;;;5019473;28;20265;-56
2021/07/25 01:27:37;;;;;;;8.73;7.85;;;20.10;99.90;;;;;;5018913;28;20277;-56
2021/07/25 01:30:06;;;;;;;10.73;8.45;;;20.10;99.90;;;;;;5015748;28;20234;-55
2021/07/25 01:32:33;;;;;;;10.00;8.07;;;20.10;99.90;;;;;;5023731;28;20232;-56
2021/07/25 01:35:01;;;;;;;10.45;8.63;;;20.10;99.90;;;;;;5020204;28;20194;-56
2021/07/25 01:37:29;;;;;;;10.20;8.50;;;20.10;99.90;;;;;;5016987;28;20272;-55
2021/07/25 01:39:55;;;;;;;9.25;8.30;;;20.10;99.90;;;;;;5011313;28;20226;-55
2021/07/25 01:42:31;;;;;;;10.83;9.83;;;20.10;99.90;;;;;;5031437;28;20194;-55
2021/07/25 01:44:57;;;;;;;10.82;8.75;;;20.10;99.90;;;;;;5013754;28;20273;-56
2021/07/25 01:47:23;;;;;;;10.10;9.20;;;20.10;99.90;;;;;;5012783;28;20228;-56
2021/07/25 01:49:49;;;;;;;9.80;8.90;;;20.20;99.90;;;;;;5012198;28;20214;-55
2021/07/25 01:52:14;;;;;;;10.50;9.50;;;20.10;99.90;;;;;;5014507;28;20280;-56
2021/07/25 01:54:41;;;;;;;11.57;8.97;;;20.10;99.90;;;;;;5018836;28;20981;-55
2021/07/25 01:57:07;;;;;;;10.93;9.85;;;20.10;99.90;;;;;;5015982;28;20214;-56
2021/07/25 01:59:33;;;;;;;9.17;8.30;;;20.10;99.90;;;;;;5020751;28;20185;-55
2021/07/25 02:01:58;;;;;;;10.07;9.17;;;20.10;99.90;;;;;;5018812;28;20190;-56
2021/07/25 02:04:24;;;;;;;11.00;9.80;;;20.10;99.90;;;;;;5014571;28;20205;-56
2021/07/25 02:06:49;;;;;;;10.30;9.17;;;20.10;99.90;;;;;;5010777;28;20660;-56
2021/07/25 02:09:15;;;;;;;9.20;8.40;;;20.00;99.90;;;;;;5024739;28;20190;-56
2021/07/25 02:11:41;;;;;;;10.57;9.27;;;20.00;99.90;;;;;;5012379;28;20683;-55
2021/07/25 02:14:08;;;;;;;10.93;9.83;;;20.00;99.90;;;;;;5016129;28;20191;-56
2021/07/25 02:16:34;;;;;;;10.15;9.15;;;20.00;99.90;;;;;;5019190;28;20217;-56
2021/07/25 02:19:00;;;;;;;10.70;9.60;;;20.00;99.90;;;;;;5014426;28;20190;-55
2021/07/25 02:21:25;;;;;;;9.97;9.07;;;19.90;99.90;;;;;;5013952;28;20461;-55
2021/07/25 02:23:51;;;;;;;10.97;9.90;;;20.00;99.90;;;;;;5018940;28;20190;-55
2021/07/25 02:26:17;;;;;;;10.47;9.47;;;20.00;99.90;;;;;;5012683;28;20196;-55
2021/07/25 02:28:42;;;;;;;10.35;9.30;;;20.00;99.90;;;;;;5006467;28;20647;-56
2021/07/25 02:31:08;;;;;;;12.80;10.70;;;19.90;99.90;;;;;;5011779;28;20206;-55
2021/07/25 02:33:34;;;;;;;10.73;9.77;;;19.90;99.90;;;;;;5016468;28;20179;-56
2021/07/25 02:35:59;;;;;;;10.80;9.70;;;19.90;99.90;;;;;;5018034;28;20226;-56
2021/07/25 02:38:25;;;;;;;10.50;9.47;;;19.90;99.90;;;;;;5018156;28;20209;-56
2021/07/25 02:40:50;;;;;;;10.77;9.70;;;19.90;99.90;;;;;;5012069;28;20198;-56
2021/07/25 02:43:16;;;;;;;10.30;9.30;;;19.90;99.90;;;;;;5021767;28;20187;-56
2021/07/25 02:45:42;;;;;;;11.23;10.23;;;19.90;99.90;;;;;;5013289;28;20562;-56
2021/07/25 02:48:07;;;;;;;11.30;10.20;;;19.90;99.90;;;;;;5013326;28;20190;-55
2021/07/25 02:50:33;;;;;;;10.40;9.40;;;20.00;99.90;;;;;;5034318;28;20210;-56
2021/07/25 02:52:59;;;;;;;10.10;9.10;;;20.00;99.90;;;;;;5013764;28;20190;-56
2021/07/25 02:55:24;;;;;;;10.10;9.20;;;20.00;99.90;;;;;;5016589;28;20182;-56
2021/07/25 02:57:50;;;;;;;11.53;10.43;;;20.00;99.90;;;;;;5010753;28;20294;-55
2021/07/25 03:00:16;;;;;;;11.60;10.40;;;20.00;99.90;;;;;;5017222;28;20801;-56
2021/07/25 03:02:42;;;;;;;10.48;9.32;;;20.00;99.90;;;;;;5018454;28;20178;-56
2021/07/25 03:05:08;;;;;;;12.17;10.97;;;20.00;99.90;;;;;;5014304;28;20685;-56
2021/07/25 03:07:33;;;;;;;11.43;9.80;;;19.90;99.90;;;;;;5017822;28;20524;-56
2021/07/25 03:09:59;;;;;;;10.67;9.57;;;19.90;99.90;;;;;;5026166;28;20210;-55
2021/07/25 03:12:25;;;;;;;11.80;10.47;;;19.90;99.90;;;;;;5014804;28;20191;-56
2021/07/25 03:14:50;;;;;;;11.53;10.43;;;19.90;99.90;;;;;;5030501;28;20194;-55
2021/07/25 03:17:16;;;;;;;12.13;10.77;;;19.90;99.90;;;;;;5014460;28;20217;-55
2021/07/25 03:19:42;;;;;;;11.30;10.30;;;19.80;99.90;;;;;;5029343;28;20263;-56
2021/07/25 03:22:09;;;;;;;11.00;9.87;;;19.90;99.90;;;;;;5030418;28;20182;-56
2021/07/25 03:24:35;;;;;;;12.30;11.10;;;19.90;99.90;;;;;;5029720;28;20193;-56
2021/07/25 03:27:01;;;;;;;11.48;10.48;;;19.80;99.90;;;;;;5019457;28;20193;-56
2021/07/25 03:29:27;;;;;;;12.38;11.10;;;19.80;99.90;;;;;;5011027;28;20232;-55
2021/07/25 03:31:53;;;;;;;11.70;10.50;;;19.90;99.90;;;;;;5012164;28;20213;-55
2021/07/25 03:34:19;;;;;;;16.00;11.60;;;19.80;99.90;;;;;;5015730;28;20190;-55
2021/07/25 03:36:45;;;;;;;11.52;10.38;;;19.80;99.90;;;;;;5015614;28;20469;-56
2021/07/25 03:39:16;;;;;;;11.90;10.50;;;19.80;99.90;;;;;;5010701;28;20578;-56
2021/07/25 03:41:42;;;;;;;10.63;9.60;;;19.70;99.90;;;;;;5005887;28;20272;-56
2021/07/25 03:44:08;;;;;;;14.13;10.90;;;19.70;99.90;;;;;;5010898;28;20191;-56
2021/07/25 03:46:34;;;;;;;13.47;11.17;;;19.70;99.90;;;;;;5008645;28;20234;-56
2021/07/25 03:49:00;;;;;;;11.80;10.70;;;19.60;99.90;;;;;;5013679;28;20434;-56
2021/07/25 03:51:26;;;;;;;11.88;10.68;;;19.90;99.90;;;;;;5014586;28;20682;-56
2021/07/25 03:53:51;;;;;;;12.03;10.83;;;19.70;99.90;;;;;;5015451;28;20201;-56
2021/07/25 03:56:22;;;;;;;12.30;11.20;;;19.60;99.90;;;;;;5024713;28;20277;-55
2021/07/25 03:58:47;;;;;;;12.07;10.88;;;19.60;99.90;;;;;;5008678;28;20182;-56
2021/07/25 04:01:13;;;;;;;12.17;10.83;;;19.50;99.90;;;;;;5011259;28;20557;-55
2021/07/25 04:03:39;;;;;;;11.03;10.00;;;19.50;99.90;;;;;;5017795;28;20214;-55
2021/07/25 04:06:05;;;;;;;11.30;10.20;;;19.50;99.90;;;;;;5014221;28;20269;-56
2021/07/25 04:08:30;;;;;;;11.93;10.80;;;19.50;99.90;;;;;;5009958;28;20273;-56
2021/07/25 04:10:56;;;;;;;11.10;10.10;;;19.30;99.90;;;;;;5014573;28;20592;-56
2021/07/25 04:13:22;;;;;;;11.10;10.03;;;19.40;99.90;;;;;;5013655;28;20197;-55
2021/07/25 04:15:47;;;;;;;12.00;10.73;;;19.40;99.90;;;;;;5019784;28;20216;-55
2021/07/25 04:18:14;;;;;;;11.57;10.23;;;19.40;99.90;;;;;;5010464;28;20229;-55
2021/07/25 04:20:40;;;;;;;10.30;9.30;;;19.40;99.90;;;;;;5029422;28;20865;-56
2021/07/25 04:23:06;;;;;;;13.75;9.88;;;19.40;99.90;;;;;;5020636;28;20178;-56
2021/07/25 04:25:33;;;;;;;11.80;10.73;;;19.40;99.90;;;;;;5015197;28;20228;-56
2021/07/25 04:28:00;;;;;;;11.00;10.00;;;19.50;99.90;;;;;;5032302;28;20664;-55
2021/07/25 04:30:28;;;;;;;11.80;10.70;;;19.60;99.90;;;;;;5012953;28;20671;-56
2021/07/25 04:32:55;;;;;;;11.40;10.40;;;19.70;99.90;;;;;;5020359;28;20190;-56
2021/07/25 04:35:21;;;;;;;11.98;9.73;;;19.60;99.90;;;;;;5014502;28;20572;-55
2021/07/25 04:37:55;;;;;;;13.73;11.27;;;19.60;99.90;;;;;;5019644;28;20231;-56
2021/07/25 04:40:22;;;;;;;11.65;10.00;;;19.60;99.90;;;;;;5015596;28;20309;-56
2021/07/25 04:42:54;;;;;;;12.63;11.45;;;19.60;99.90;;;;;;5014106;28;20719;-56
2021/07/25 04:45:49;;;;;;;13.13;11.93;;;19.60;99.90;;;;;;5015865;28;20218;-55
2021/07/25 04:48:23;;;;;;;11.60;10.30;;;19.60;99.90;;;;;;5019690;28;20206;-56
2021/07/25 04:50:52;;;;;;;12.77;11.57;;;19.50;99.90;;;;;;5021505;28;20320;-55
2021/07/25 04:53:26;;;;;;;12.20;9.75;;;19.60;99.90;;;;;;5014729;28;20265;-56
2021/07/25 04:56:00;;;;;;;10.75;9.85;;;19.70;99.90;;;;;;5014451;28;20276;-56
2021/07/25 04:58:39;;;;;;;11.25;10.25;;;19.80;99.90;;;;;;5007374;28;20226;-55
2021/07/25 05:01:05;;;;;;;10.20;9.30;;;19.70;99.90;;;;;;5016063;28;20292;-55
2021/07/25 05:03:33;;;;;;;10.27;9.38;;;19.90;99.90;;;;;;5020988;28;20556;-56
2021/07/25 05:05:59;;;;;;;11.60;9.90;;;19.80;99.90;;;;;;5031303;28;20682;-55
2021/07/25 05:08:25;;;;;;;11.05;10.10;;;19.90;99.90;;;;;;5015126;28;20194;-56
2021/07/25 05:11:01;;;;;;;10.27;9.38;;;20.00;99.90;;;;;;5011278;28;20291;-56
2021/07/25 05:13:30;;;;;;;10.20;9.20;;;19.80;99.90;;;;;;5040435;28;20182;-56
2021/07/25 05:15:56;;;;;;;8.55;7.75;;;19.80;99.90;;;;;;5008013;28;20182;-55
2021/07/25 05:18:34;;;;;;;9.30;8.50;;;19.70;99.90;;;;;;5018691;28;20216;-56
2021/07/25 05:21:21;;;;;;;10.15;9.25;;;19.70;99.90;;;;;;5013337;28;20465;-56
2021/07/25 05:23:54;;;;;;;10.20;9.20;;;19.70;99.90;;;;;;5018862;28;20589;-56
2021/07/25 05:26:24;;;;;;;10.55;9.55;;;19.70;99.90;;;;;;5022898;28;20197;-56
2021/07/25 05:28:57;;;;;;;10.20;9.20;;;19.80;99.90;;;;;;4999195;28;20182;-59
2021/07/25 05:31:33;;;;;;;10.02;8.45;;;19.70;99.90;;;;;;5011184;28;20225;-60
2021/07/25 05:34:02;;;;;;;9.55;8.75;;;19.80;99.90;;;;;;5010812;28;20177;-62
2021/07/25 05:36:27;;;;;;;10.02;9.15;;;19.80;99.90;;;;;;5005481;28;20187;-63
2021/07/25 05:38:53;;;;;;;15.87;9.93;;;19.80;99.90;;;;;;5009195;28;20545;-59
2021/07/25 05:41:20;;;;;;;10.40;9.40;;;19.70;99.90;;;;;;5008099;28;20210;-59
2021/07/25 05:43:45;;;;;;;10.48;9.02;;;19.70;99.90;;;;;;5025143;28;20522;-59
2021/07/25 05:46:11;;;;;;;8.80;8.00;;;19.80;99.90;;;;;;5022196;28;20252;-60
2021/07/25 05:48:36;;;;;;;8.80;8.00;;;19.70;99.90;;;;;;5007315;28;20808;-59
2021/07/25 05:51:03;;;;;;;9.43;8.57;;;19.80;99.90;;;;;;5004969;28;20209;-59
2021/07/25 05:53:32;;;;;;;9.57;8.68;;;20.00;99.90;;;;;;5008149;28;20185;-58
2021/07/25 05:55:58;;;;;;;9.43;8.63;;;20.10;99.90;;;;;;5008289;28;20336;-59
2021/07/25 05:58:24;;;;;;;9.03;8.20;;;20.20;99.90;;;;;;5024581;28;20222;-60
2021/07/25 06:00:51;;;;;;;9.00;8.17;;;20.30;99.90;;;;;;5010060;28;20567;-61
2021/07/25 06:03:17;;;;;;;9.43;8.60;;;20.40;99.90;;;;;;5012323;28;20187;-60
2021/07/25 06:05:42;;;;;;;14.40;8.23;;;20.60;99.90;;;;;;5014131;28;20197;-62
2021/07/25 06:08:09;;;;;;;9.37;7.77;;;20.70;99.90;;;;;;5036798;28;20182;-61
2021/07/25 06:10:39;;;;;;;7.88;7.25;;;20.70;99.90;;;;;;5022122;28;20209;-62
2021/07/25 06:13:06;;;;;;;8.10;7.50;;;20.90;99.90;;;;;;5007235;28;20182;-61
2021/07/25 06:15:33;;;;;;;7.65;6.95;;;21.00;99.90;;;;;;5005064;28;20186;-62
2021/07/25 06:18:03;;;;;;;7.15;6.45;;;21.20;99.90;;;;;;5001999;28;20209;-63
2021/07/25 06:20:30;;;;;;;7.47;6.88;;;21.30;99.90;;;;;;5009736;28;20198;-60
2021/07/25 06:22:57;;;;;;;9.75;7.70;;;21.20;99.90;;;;;;5006837;28;20220;-61
2021/07/25 06:25:28;;;;;;;7.25;6.55;;;21.20;99.90;;;;;;5013817;28;20194;-61
2021/07/25 06:27:56;;;;;;;11.20;7.97;;;21.50;99.90;;;;;;5007428;28;20319;-63
2021/07/25 06:30:23;;;;;;;8.05;7.35;;;21.60;99.90;;;;;;5005676;28;20210;-64
2021/07/25 06:33:07;;;;;;;8.73;7.35;;;21.70;99.90;;;;;;5008364;28;20187;-64
2021/07/25 06:35:38;;;;;;;8.48;7.72;;;21.90;99.90;;;;;;5015925;28;20662;-63
2021/07/25 06:38:12;;;;;;;8.10;7.40;;;21.90;99.90;;;;;;5006746;28;20202;-64
2021/07/25 06:40:45;;;;;;;8.45;7.65;;;21.90;99.90;;;;;;5011334;28;20209;-63
2021/07/25 06:43:12;;;;;;;8.90;8.00;;;22.00;99.90;;;;;;5002843;28;20185;-63
2021/07/25 06:45:37;;;;;;;7.50;6.90;;;22.10;99.90;;;;;;5008694;28;20453;-64
2021/07/25 06:48:03;;;;;;;7.80;7.00;;;22.30;99.90;;;;;;5016942;28;20808;-63
2021/07/25 06:50:31;;;;;;;34.20;26.53;;;22.40;99.90;;;;;;5014294;28;20238;-64
2021/07/25 06:52:58;;;;;;;32.17;20.53;;;22.60;99.90;;;;;;5008756;28;20459;-64
2021/07/25 06:55:26;;;;;;;9.00;8.20;;;22.90;99.90;;;;;;5032025;28;20444;-64
2021/07/25 06:57:51;;;;;;;9.07;8.27;;;23.20;99.90;;;;;;5026694;28;20522;-63
2021/07/25 07:00:17;;;;;;;9.00;8.17;;;23.40;99.90;;;;;;5011713;28;20461;-64
2021/07/25 07:02:54;;;;;;;8.03;7.37;;;23.90;99.90;;;;;;5012516;28;20190;-65
2021/07/25 07:05:24;;;;;;;9.33;8.60;;;24.40;99.90;;;;;;5007761;28;20277;-63
2021/07/25 07:07:53;;;;;;;8.70;7.97;;;24.50;99.90;;;;;;5008800;28;20519;-64
2021/07/25 07:10:21;;;;;;;9.07;8.27;;;24.70;99.90;;;;;;5003986;28;20489;-64
2021/07/25 07:12:48;;;;;;;9.07;8.20;;;25.40;99.90;;;;;;5009086;28;20805;-64
2021/07/25 07:15:15;;;;;;;8.93;8.13;;;26.00;99.90;;;;;;5013582;28;20478;-64
2021/07/25 07:17:42;;;;;;;8.77;8.00;;;26.20;99.90;;;;;;5006837;28;20463;-62
2021/07/25 07:20:10;;;;;;;9.00;8.30;;;26.00;99.90;;;;;;5009552;28;20874;-62
2021/07/25 07:22:37;;;;;;;8.37;7.60;;;25.80;99.90;;;;;;5012203;28;20776;-62
2021/07/25 07:25:04;;;;;;;7.87;7.17;;;25.40;99.90;;;;;;5025986;28;20961;-62
2021/07/25 07:27:31;;;;;;;7.23;6.63;;;25.40;99.90;;;;;;5011961;28;20970;-62
2021/07/25 07:29:58;;;;;;;8.17;7.47;;;25.40;99.90;;;;;;5012833;28;20453;-64
2021/07/25 07:32:24;;;;;;;6.87;6.30;;;25.40;99.90;;;;;;5024978;28;20454;-65
2021/07/25 07:34:50;;;;;;;7.03;6.43;;;25.50;99.90;;;;;;5023137;28;20438;-64
2021/07/25 07:37:16;;;;;;;7.73;7.07;;;25.60;99.90;;;;;;5014015;28;20209;-65
2021/07/25 07:39:42;;;;;;;8.33;7.53;;;25.50;99.90;;;;;;5006384;28;20199;-60
2021/07/25 07:42:10;;;;;;;7.73;7.03;;;25.60;99.90;;;;;;5006288;28;20520;-60
2021/07/25 07:44:37;;;;;;;7.93;6.90;;;25.20;99.90;;;;;;5025469;28;20441;-60
2021/07/25 07:47:03;;;;;;;7.60;6.90;;;24.40;99.90;;;;;;5028379;28;20832;-60
2021/07/25 07:49:29;;;;;;;8.70;7.80;;;24.20;99.90;;;;;;5017454;28;20443;-61
2021/07/25 07:51:56;;;;;;;8.10;7.30;;;24.40;99.90;;;;;;5039390;28;20550;-60
2021/07/25 07:54:22;;;;;;;8.80;8.10;;;24.80;99.90;;;;;;5022845;28;21004;-61
2021/07/25 07:56:47;;;;;;;8.23;7.50;;;24.90;99.90;;;;;;5008628;28;20217;-61
2021/07/25 07:59:16;;;;;;;6.73;6.03;;;24.90;99.90;;;;;;5007547;28;20219;-60
2021/07/25 08:01:42;;;;;;;6.83;6.23;;;25.20;99.90;;;;;;5008038;28;20203;-61
2021/07/25 08:04:07;;;;;;;7.10;6.50;;;25.20;99.90;;;;;;5013096;28;20457;-62
2021/07/25 08:06:33;;;;;;;8.00;7.30;;;25.20;99.90;;;;;;5019920;28;20237;-62
2021/07/25 08:08:58;;;;;;;7.93;7.20;;;25.20;99.90;;;;;;5017890;28;20940;-62
2021/07/25 08:11:24;;;;;;;7.10;6.40;;;25.50;99.90;;;;;;5020419;28;20212;-56
2021/07/25 08:13:53;;;;;;;8.43;7.50;;;26.00;99.90;;;;;;5007334;28;20186;-56
2021/07/25 08:16:18;;;;;;;7.73;7.13;;;26.70;99.90;;;;;;5008508;28;20661;-57
2021/07/25 08:18:44;;;;;;;7.30;6.70;;;26.60;99.90;;;;;;5010565;28;20441;-57
2021/07/25 08:21:09;;;;;;;8.37;7.53;;;26.60;99.90;;;;;;5010966;28;20715;-56
2021/07/25 08:23:35;;;;;;;7.97;7.33;;;26.60;99.40;;;;;;5029877;28;20189;-56
2021/07/25 08:26:01;;;;;;;7.40;6.80;;;26.30;99.80;;;;;;5007355;28;20273;-56
2021/07/25 08:28:28;;;;;;;6.90;6.40;;;25.90;99.90;;;;;;5011498;28;20916;-56
2021/07/25 08:30:54;;;;;;;7.80;7.20;;;25.40;99.90;;;;;;5036031;28;20460;-56
2021/07/25 08:33:20;;;;;;;7.03;5.57;;;25.20;99.90;;;;;;5009389;28;20542;-57
2021/07/25 08:35:45;;;;;;;5.93;5.40;;;25.00;99.90;;;;;;5011720;28;20534;-57
2021/07/25 08:38:11;;;;;;;7.40;6.70;;;24.60;99.90;;;;;;5007992;28;20594;-58
2021/07/25 08:40:37;;;;;;;8.97;8.00;;;24.70;99.90;;;;;;5006879;28;20597;-57
2021/07/25 08:43:11;;;;;;;8.30;7.50;;;24.60;99.90;;;;;;5015446;28;20236;-57
2021/07/25 08:45:40;;;;;;;8.00;7.30;;;23.90;99.90;;;;;;5016900;28;20687;-57
2021/07/25 08:48:14;;;;;;;11.60;7.97;;;24.10;99.90;;;;;;5010283;28;20433;-57
2021/07/25 08:51:02;;;;;;;8.13;6.90;;;24.10;99.90;;;;;;5015564;28;20452;-58
2021/07/25 08:53:33;;;;;;;8.40;7.60;;;24.10;99.90;;;;;;5014532;28;20938;-56
2021/07/25 08:55:59;;;;;;;8.80;7.20;;;24.10;99.90;;;;;;5017490;28;20465;-58
2021/07/25 08:58:28;;;;;;;8.07;7.27;;;24.20;99.90;;;;;;5016048;28;20457;-57
2021/07/25 09:00:54;;;;;;;7.83;7.20;;;24.30;99.90;;;;;;5030545;28;20965;-58
2021/07/25 09:03:21;;;;;;;5.60;5.20;;;24.10;99.90;;;;;;5008026;28;20453;-58
2021/07/25 09:05:47;;;;;;;6.00;5.13;;;24.20;99.90;;;;;;5010724;28;20437;-58
2021/07/25 09:08:14;;;;;;;6.80;5.70;;;24.20;99.90;;;;;;5001380;28;20440;-57
2021/07/25 09:10:40;;;;;;;5.70;5.10;;;24.20;99.90;;;;;;4999846;28;20465;-56
2021/07/25 09:13:06;;;;;;;5.90;5.30;;;24.10;99.90;;;;;;5010827;28;20452;-56
2021/07/25 09:15:35;;;;;;;6.07;5.50;;;24.00;99.90;;;;;;5031319;28;20952;-57
2021/07/25 09:18:03;;;;;;;8.17;7.37;;;24.00;99.90;;;;;;5027008;28;20507;-56
2021/07/25 09:20:36;;;;;;;8.67;7.77;;;24.00;99.90;;;;;;5022943;28;20496;-56
2021/07/25 09:23:08;;;;;;;9.37;8.43;;;24.00;99.90;;;;;;5010456;28;20495;-57
2021/07/25 09:25:41;;;;;;;12.60;9.00;;;24.20;99.90;;;;;;5020717;28;20487;-56
2021/07/25 09:28:11;;;;;;;8.43;7.63;;;24.40;99.90;;;;;;5004233;28;20448;-57
2021/07/25 09:30:37;;;;;;;8.77;7.87;;;24.60;99.90;;;;;;5009670;28;20513;-58
2021/07/25 09:33:27;;;;;;;7.03;6.33;;;24.60;99.90;;;;;;5008172;28;20816;-58
2021/07/25 09:35:55;;;;;;;6.33;5.57;;;24.60;99.90;;;;;;5006821;28;20557;-57
2021/07/25 09:38:21;;;;;;;8.23;6.33;;;24.70;99.90;;;;;;5006713;28;21061;-58
2021/07/25 09:40:47;;;;;;;8.93;6.10;;;24.50;99.90;;;;;;5007612;28;20508;-58
2021/07/25 09:43:20;;;;;;;6.60;6.00;;;24.40;99.90;;;;;;5014522;28;20810;-58
2021/07/25 09:45:55;;;;;;;8.50;6.97;;;24.30;99.90;;;;;;5025192;28;20466;-56
2021/07/25 09:48:34;;;;;;;7.30;6.30;;;24.10;99.90;;;;;;5024338;28;20448;-55
2021/07/25 09:51:21;;;;;;;6.93;6.23;;;23.80;99.90;;;;;;5024411;28;20483;-57
2021/07/25 09:53:51;;;;;;;5.73;5.17;;;23.70;99.90;;;;;;5012424;28;20436;-58
2021/07/25 09:56:23;;;;;;;5.80;5.30;;;23.60;99.90;;;;;;5014600;28;21019;-57
2021/07/25 09:58:50;;;;;;;6.97;6.37;;;23.50;99.90;;;;;;5011574;28;20503;-56
2021/07/25 10:01:41;;;;;;;6.23;5.63;;;23.40;99.90;;;;;;5028796;28;20522;-58
2021/07/25 10:04:18;;;;;;;9.50;6.17;;;23.30;99.90;;;;;;5006479;28;20540;-57
2021/07/25 10:06:45;;;;;;;7.87;5.90;;;23.00;99.90;;;;;;5010375;28;20978;-56
2021/07/25 10:09:13;;;;;;;6.80;6.20;;;23.00;99.90;;;;;;5005957;28;20441;-57
2021/07/25 10:11:42;;;;;;;5.40;4.90;;;22.90;99.90;;;;;;5005148;28;20465;-57
2021/07/25 10:14:08;;;;;;;6.10;5.60;;;22.90;99.90;;;;;;5006316;28;20543;-58
2021/07/25 10:16:33;;;;;;;5.30;4.90;;;22.90;99.90;;;;;;5006165;28;20453;-58
2021/07/25 10:19:02;;;;;;;4.93;4.43;;;22.80;99.90;;;;;;5009987;28;20946;-57
2021/07/25 10:21:32;;;;;;;4.90;4.50;;;22.80;99.90;;;;;;5023227;28;20206;-56
2021/07/25 10:23:58;;;;;;;7.95;4.95;;;22.70;99.90;;;;;;5006093;28;20268;-55
2021/07/25 10:26:25;;;;;;;5.83;5.30;;;22.60;99.90;;;;;;5028673;28;20193;-57
2021/07/25 10:28:57;;;;;;;5.70;5.30;;;22.50;99.90;;;;;;5005267;28;20437;-56
2021/07/25 10:31:24;;;;;;;6.38;5.22;;;22.20;99.90;;;;;;5028698;28;20206;-57
2021/07/25 10:33:54;;;;;;;6.40;5.90;;;22.20;99.90;;;;;;5020245;28;20274;-55
2021/07/25 10:36:21;;;;;;;6.38;5.57;;;22.20;99.90;;;;;;5003564;28;20647;-56
2021/07/25 10:38:47;;;;;;;6.15;5.55;;;22.10;99.90;;;;;;5009320;28;20205;-56
2021/07/25 10:41:21;;;;;;;6.75;6.10;;;21.80;99.90;;;;;;5014072;28;20276;-57
2021/07/25 10:43:46;;;;;;;5.90;5.40;;;21.90;99.90;;;;;;5026999;28;20297;-56
2021/07/25 10:46:17;;;;;;;6.83;6.00;;;21.90;99.90;;;;;;5026525;28;20587;-57
2021/07/25 10:49:09;;;;;;;7.30;5.60;;;22.00;99.90;;;;;;5016882;28;20442;-56
2021/07/25 10:51:59;;;;;;;5.93;5.32;;;21.90;99.90;;;;;;5009060;28;20622;-56
2021/07/25 10:54:25;;;;;;;5.20;4.80;;;21.70;99.90;;;;;;5015388;28;20197;-56
2021/07/25 10:56:59;;;;;;;6.77;6.03;;;21.60;99.90;;;;;;5018622;28;20210;-56
2021/07/25 10:59:40;;;;;;;5.90;5.28;;;21.40;99.90;;;;;;5012494;28;20456;-57
2021/07/25 11:02:12;;;;;;;5.55;5.05;;;21.80;99.90;;;;;;5011686;28;20265;-57
2021/07/25 11:05:01;;;;;;;6.30;5.80;;;21.90;99.90;;;;;;5019042;28;20718;-57
2021/07/25 11:07:26;;;;;;;5.95;5.45;;;21.90;99.90;;;;;;5006688;28;20214;-57
2021/07/25 11:10:01;;;;;;;6.00;5.50;;;22.00;99.90;;;;;;5009669;28;20551;-55
2021/07/25 11:12:55;;;;;;;5.95;5.45;;;21.90;99.90;;;;;;5026143;28;20685;-57
2021/07/25 11:15:31;;;;;;;8.93;8.07;;;21.80;99.90;;;;;;5024423;28;20212;-56
2021/07/25 11:17:57;;;;;;;5.90;5.35;;;21.70;99.90;;;;;;5004484;28;20997;-56
2021/07/25 11:20:42;;;;;;;5.78;5.25;;;21.80;99.90;;;;;;5006704;28;20194;-57
2021/07/25 11:23:10;;;;;;;6.47;5.95;;;21.80;99.90;;;;;;5021675;28;20269;-56
2021/07/25 11:25:36;;;;;;;7.63;6.40;;;21.80;99.90;;;;;;5029413;28;20425;-58
2021/07/25 11:28:09;;;;;;;6.78;6.13;;;21.90;99.90;;;;;;5008236;28;20204;-57
2021/07/25 11:30:53;;;;;;;6.53;5.93;;;22.10;99.90;;;;;;5004265;28;20573;-57
2021/07/25 11:33:39;;;;;;;6.67;6.17;;;22.40;99.90;;;;;;5031278;28;20182;-57
2021/07/25 11:36:13;;;;;;;7.23;6.60;;;22.50;99.90;;;;;;5024572;28;20478;-57
2021/07/25 11:38:40;;;;;;;7.30;6.60;;;22.70;99.90;;;;;;5025442;28;20507;-57
2021/07/25 11:41:08;;;;;;;7.20;6.60;;;23.00;99.90;;;;;;5013494;28;20454;-58
2021/07/25 11:43:52;;;;;;;6.37;5.80;;;23.20;99.90;;;;;;5011085;28;20463;-57
2021/07/25 11:46:47;;;;;;;5.87;5.37;;;23.20;99.90;;;;;;5026568;28;20440;-57
2021/07/25 11:49:20;;;;;;;6.90;6.20;;;23.20;99.90;;;;;;5005588;28;20514;-57
2021/07/25 11:51:47;;;;;;;6.60;6.10;;;23.10;99.90;;;;;;5012054;28;20463;-57
2021/07/25 11:54:18;;;;;;;7.10;6.50;;;23.20;99.90;;;;;;5004478;28;20424;-58
2021/07/25 11:56:59;;;;;;;7.00;6.30;;;23.30;99.90;;;;;;5020763;28;20437;-57
2021/07/25 11:59:25;;;;;;;6.70;6.10;;;23.30;99.90;;;;;;5006673;28;20441;-57
2021/07/25 12:01:51;;;;;;;7.40;6.80;;;23.40;99.90;;;;;;4999336;28;20825;-57
2021/07/25 12:04:50;;;;;;;7.13;6.43;;;23.30;99.90;;;;;;5010172;28;20507;-56
2021/07/25 12:07:20;;;;;;;7.77;7.07;;;23.40;99.90;;;;;;4944207;28;20196;-57
2021/07/25 12:09:56;;;;;;;8.00;7.30;;;23.20;99.90;;;;;;5014926;28;20806;-57
2021/07/25 12:12:24;;;;;;;7.10;6.40;;;23.20;99.90;;;;;;5004284;28;21773;-57
2021/07/25 12:15:00;;;;;;;7.40;6.70;;;23.20;99.90;;;;;;5009432;28;20449;-57
2021/07/25 12:17:50;;;;;;;7.40;6.73;;;23.00;99.90;;;;;;5008838;28;20990;-57
2021/07/25 12:20:28;;;;;;;6.90;6.30;;;23.00;99.90;;;;;;5016660;28;20458;-57
2021/07/25 12:23:03;;;;;;;7.27;6.60;;;22.80;99.90;;;;;;5016076;28;20435;-56
2021/07/25 12:25:30;;;;;;;7.83;6.40;;;22.80;99.90;;;;;;5011654;28;20435;-56
2021/07/25 12:28:07;;;;;;;6.63;6.03;;;22.50;99.90;;;;;;5003078;28;20440;-56
2021/07/25 12:30:49;;;;;;;6.40;5.80;;;22.50;99.90;;;;;;5010559;28;20491;-57
2021/07/25 12:33:25;;;;;;;7.60;6.13;;;22.40;99.90;;;;;;5030430;28;20495;-57
2021/07/25 12:35:51;;;;;;;6.85;6.15;;;22.30;99.90;;;;;;5016455;28;20436;-57
2021/07/25 12:38:18;;;;;;;6.47;5.90;;;22.20;99.90;;;;;;5014835;28;20215;-57
2021/07/25 12:41:00;;;;;;;6.18;5.57;;;22.20;99.90;;;;;;5040068;28;20984;-57
2021/07/25 12:43:27;;;;;;;6.00;5.50;;;22.30;99.90;;;;;;5010119;28;20205;-57
2021/07/25 12:45:57;;;;;;;5.77;5.30;;;22.30;99.90;;;;;;5013271;28;20471;-57
2021/07/25 12:48:25;;;;;;;5.70;5.20;;;22.20;99.90;;;;;;5015469;28;20577;-57
2021/07/25 12:51:32;;;;;;;7.10;6.50;;;22.20;99.90;;;;;;5009885;28;20230;-57
2021/07/25 12:53:50;;;;;;;7.75;6.32;;;22.10;99.90;;;;;;5023195;28;20197;-57
2021/07/25 12:56:34;;;;;;;6.50;5.90;;;22.00;99.90;;;;;;5012551;28;20232;-58